sensor_id;sensor_type;location;lat;lon;timestamp;P1;durP1;ratioP1;P2;durP2;ratioP2
70075;SDS011;63241;51.056;3.698;2023-05-10T00:01:31;61.42;;;21.02;;
70075;SDS011;63241;51.056;3.698;2023-05-10T00:03:59;57.48;;;21.10;;
70075;SDS011;63241;51.056;3.698;2023-05-10T00:06:27;60.15;;;21.50;;
70075;SDS011;63241;51.056;3.698;2023-05-10T00:08:55;65.62;;;23.15;;
70075;SDS011;63241;51.056;3.698;2023-05-10T00:11:22;51.65;;;20.88;;
70075;SDS011;63241;51.056;3.698;2023-05-10T00:13:50;57.70;;;21.35;;
70075;SDS011;63241;51.056;3.698;2023-05-10T00:16:18;53.35;;;20.45;;
70075;SDS011;63241;51.056;3.698;2023-05-10T00:18:45;50.05;;;20.57;;
70075;SDS011;63241;51.056;3.698;2023-05-10T00:21:13;52.45;;;21.20;;
70075;SDS011;63241;51.056;3.698;2023-05-10T00:23:41;47.70;;;21.15;;
70075;SDS011;63241;51.056;3.698;2023-05-10T00:26:08;42.10;;;19.40;;
70075;SDS011;63241;51.056;3.698;2023-05-10T00:28:36;44.85;;;20.00;;
70075;SDS011;63241;51.056;3.698;2023-05-10T00:31:04;49.67;;;22.02;;
70075;SDS011;63241;51.056;3.698;2023-05-10T00:33:31;45.70;;;21.52;;
70075;SDS011;63241;51.056;3.698;2023-05-10T00:35:59;51.85;;;24.25;;
70075;SDS011;63241;51.056;3.698;2023-05-10T00:38:27;50.95;;;24.45;;
70075;SDS011;63241;51.056;3.698;2023-05-10T00:40:54;51.40;;;24.32;;
70075;SDS011;63241;51.056;3.698;2023-05-10T00:43:22;48.70;;;25.50;;
70075;SDS011;63241;51.056;3.698;2023-05-10T00:45:50;61.48;;;25.45;;
70075;SDS011;63241;51.056;3.698;2023-05-10T00:48:17;44.85;;;23.55;;
70075;SDS011;63241;51.056;3.698;2023-05-10T00:50:46;57.35;;;25.88;;
70075;SDS011;63241;51.056;3.698;2023-05-10T00:53:14;61.30;;;26.57;;
70075;SDS011;63241;51.056;3.698;2023-05-10T00:55:42;55.50;;;27.22;;
70075;SDS011;63241;51.056;3.698;2023-05-10T00:58:10;49.53;;;25.30;;
70075;SDS011;63241;51.056;3.698;2023-05-10T01:00:38;48.02;;;26.23;;
70075;SDS011;63241;51.056;3.698;2023-05-10T01:03:10;54.55;;;26.10;;
70075;SDS011;63241;51.056;3.698;2023-05-10T01:05:37;50.73;;;26.97;;
70075;SDS011;63241;51.056;3.698;2023-05-10T01:08:05;51.20;;;25.52;;
70075;SDS011;63241;51.056;3.698;2023-05-10T01:10:34;48.25;;;27.37;;
70075;SDS011;63241;51.056;3.698;2023-05-10T01:13:02;53.75;;;27.13;;
70075;SDS011;63241;51.056;3.698;2023-05-10T01:15:30;46.85;;;26.93;;
70075;SDS011;63241;51.056;3.698;2023-05-10T01:17:58;41.88;;;26.62;;
70075;SDS011;63241;51.056;3.698;2023-05-10T01:20:28;46.13;;;27.60;;
70075;SDS011;63241;51.056;3.698;2023-05-10T01:36:43;47.27;;;27.77;;
70075;SDS011;63241;51.056;3.698;2023-05-10T01:42:00;46.13;;;27.90;;
70075;SDS011;63241;51.056;3.698;2023-05-10T01:44:34;47.85;;;29.20;;
70075;SDS011;63241;51.056;3.698;2023-05-10T01:47:14;47.58;;;29.82;;
70075;SDS011;63241;51.056;3.698;2023-05-10T01:49:53;47.25;;;28.73;;
70075;SDS011;63241;51.056;3.698;2023-05-10T01:52:14;47.33;;;31.05;;
70075;SDS011;63241;51.056;3.698;2023-05-10T01:54:52;45.98;;;29.98;;
70075;SDS011;63241;51.056;3.698;2023-05-10T01:57:31;44.88;;;29.12;;
70075;SDS011;63241;51.056;3.698;2023-05-10T02:00:02;46.68;;;28.17;;
70075;SDS011;63241;51.056;3.698;2023-05-10T02:02:33;44.27;;;29.23;;
70075;SDS011;63241;51.056;3.698;2023-05-10T02:05:02;47.13;;;27.10;;
70075;SDS011;63241;51.056;3.698;2023-05-10T02:10:07;42.98;;;25.27;;
70075;SDS011;63241;51.056;3.698;2023-05-10T02:12:32;48.20;;;26.95;;
70075;SDS011;63241;51.056;3.698;2023-05-10T02:15:05;47.50;;;27.05;;
70075;SDS011;63241;51.056;3.698;2023-05-10T02:17:35;49.42;;;27.13;;
70075;SDS011;63241;51.056;3.698;2023-05-10T02:20:04;48.68;;;27.22;;
70075;SDS011;63241;51.056;3.698;2023-05-10T02:22:33;45.52;;;25.55;;
70075;SDS011;63241;51.056;3.698;2023-05-10T02:25:04;48.35;;;25.85;;
70075;SDS011;63241;51.056;3.698;2023-05-10T02:27:33;44.15;;;25.40;;
70075;SDS011;63241;51.056;3.698;2023-05-10T02:30:01;48.20;;;26.82;;
70075;SDS011;63241;51.056;3.698;2023-05-10T02:32:29;48.35;;;26.48;;
70075;SDS011;63241;51.056;3.698;2023-05-10T02:34:57;41.73;;;25.32;;
70075;SDS011;63241;51.056;3.698;2023-05-10T02:37:27;41.48;;;25.02;;
70075;SDS011;63241;51.056;3.698;2023-05-10T02:39:55;43.17;;;25.92;;
70075;SDS011;63241;51.056;3.698;2023-05-10T02:42:25;41.83;;;25.60;;
70075;SDS011;63241;51.056;3.698;2023-05-10T02:44:59;38.10;;;23.70;;
70075;SDS011;63241;51.056;3.698;2023-05-10T02:47:28;37.33;;;23.70;;
70075;SDS011;63241;51.056;3.698;2023-05-10T02:49:56;40.12;;;23.98;;
70075;SDS011;63241;51.056;3.698;2023-05-10T02:52:25;39.25;;;24.00;;
70075;SDS011;63241;51.056;3.698;2023-05-10T02:54:55;38.38;;;22.93;;
70075;SDS011;63241;51.056;3.698;2023-05-10T02:57:26;46.05;;;23.18;;
70075;SDS011;63241;51.056;3.698;2023-05-10T02:59:58;36.85;;;22.22;;
70075;SDS011;63241;51.056;3.698;2023-05-10T03:02:26;41.53;;;23.02;;
70075;SDS011;63241;51.056;3.698;2023-05-10T03:04:55;33.63;;;22.27;;
70075;SDS011;63241;51.056;3.698;2023-05-10T03:07:23;29.95;;;20.90;;
70075;SDS011;63241;51.056;3.698;2023-05-10T03:09:51;33.60;;;20.80;;
70075;SDS011;63241;51.056;3.698;2023-05-10T03:17:50;31.82;;;21.10;;
70075;SDS011;63241;51.056;3.698;2023-05-10T03:20:43;34.20;;;22.32;;
70075;SDS011;63241;51.056;3.698;2023-05-10T03:25:55;39.33;;;23.52;;
70075;SDS011;63241;51.056;3.698;2023-05-10T03:28:26;35.23;;;22.50;;
70075;SDS011;63241;51.056;3.698;2023-05-10T03:30:54;39.40;;;22.67;;
70075;SDS011;63241;51.056;3.698;2023-05-10T03:33:22;40.08;;;23.50;;
70075;SDS011;63241;51.056;3.698;2023-05-10T03:35:50;38.63;;;24.00;;
70075;SDS011;63241;51.056;3.698;2023-05-10T03:38:18;41.68;;;24.52;;
70075;SDS011;63241;51.056;3.698;2023-05-10T03:40:45;37.73;;;23.35;;
70075;SDS011;63241;51.056;3.698;2023-05-10T03:43:13;39.95;;;24.12;;
70075;SDS011;63241;51.056;3.698;2023-05-10T03:45:40;38.23;;;22.93;;
70075;SDS011;63241;51.056;3.698;2023-05-10T03:48:08;46.02;;;25.25;;
70075;SDS011;63241;51.056;3.698;2023-05-10T03:50:36;40.38;;;23.50;;
70075;SDS011;63241;51.056;3.698;2023-05-10T03:53:03;40.48;;;23.83;;
70075;SDS011;63241;51.056;3.698;2023-05-10T03:55:31;38.70;;;23.60;;
70075;SDS011;63241;51.056;3.698;2023-05-10T03:58:00;42.30;;;25.90;;
70075;SDS011;63241;51.056;3.698;2023-05-10T04:00:28;42.00;;;25.27;;
70075;SDS011;63241;51.056;3.698;2023-05-10T04:02:56;40.75;;;25.65;;
70075;SDS011;63241;51.056;3.698;2023-05-10T04:05:24;46.58;;;28.87;;
70075;SDS011;63241;51.056;3.698;2023-05-10T04:07:51;44.08;;;27.90;;
70075;SDS011;63241;51.056;3.698;2023-05-10T04:10:19;47.30;;;28.55;;
70075;SDS011;63241;51.056;3.698;2023-05-10T04:12:47;49.88;;;28.85;;
70075;SDS011;63241;51.056;3.698;2023-05-10T04:15:14;46.08;;;30.45;;
70075;SDS011;63241;51.056;3.698;2023-05-10T04:17:42;48.95;;;31.75;;
70075;SDS011;63241;51.056;3.698;2023-05-10T04:20:10;52.50;;;30.62;;
70075;SDS011;63241;51.056;3.698;2023-05-10T04:22:38;57.15;;;32.90;;
70075;SDS011;63241;51.056;3.698;2023-05-10T04:25:06;58.08;;;34.45;;
70075;SDS011;63241;51.056;3.698;2023-05-10T04:27:34;63.08;;;34.15;;
70075;SDS011;63241;51.056;3.698;2023-05-10T04:30:02;55.92;;;31.45;;
70075;SDS011;63241;51.056;3.698;2023-05-10T04:32:31;60.88;;;34.67;;
70075;SDS011;63241;51.056;3.698;2023-05-10T04:34:58;60.67;;;34.43;;
70075;SDS011;63241;51.056;3.698;2023-05-10T04:37:28;60.92;;;33.30;;
70075;SDS011;63241;51.056;3.698;2023-05-10T04:39:55;59.05;;;35.65;;
70075;SDS011;63241;51.056;3.698;2023-05-10T04:42:23;63.98;;;35.28;;
70075;SDS011;63241;51.056;3.698;2023-05-10T04:44:51;55.35;;;33.18;;
70075;SDS011;63241;51.056;3.698;2023-05-10T04:47:18;58.55;;;34.15;;
70075;SDS011;63241;51.056;3.698;2023-05-10T04:49:46;57.67;;;34.15;;
70075;SDS011;63241;51.056;3.698;2023-05-10T04:52:14;51.90;;;33.40;;
70075;SDS011;63241;51.056;3.698;2023-05-10T04:54:43;58.63;;;34.65;;
70075;SDS011;63241;51.056;3.698;2023-05-10T04:57:10;55.35;;;34.55;;
70075;SDS011;63241;51.056;3.698;2023-05-10T04:59:38;59.20;;;34.15;;
70075;SDS011;63241;51.056;3.698;2023-05-10T05:02:06;49.48;;;31.55;;
70075;SDS011;63241;51.056;3.698;2023-05-10T05:04:33;56.90;;;33.73;;
70075;SDS011;63241;51.056;3.698;2023-05-10T05:07:01;55.00;;;34.23;;
70075;SDS011;63241;51.056;3.698;2023-05-10T05:09:28;58.87;;;34.55;;
70075;SDS011;63241;51.056;3.698;2023-05-10T05:11:57;60.92;;;35.55;;
70075;SDS011;63241;51.056;3.698;2023-05-10T05:14:25;65.52;;;36.23;;
70075;SDS011;63241;51.056;3.698;2023-05-10T05:16:53;58.58;;;34.75;;
70075;SDS011;63241;51.056;3.698;2023-05-10T05:19:21;60.25;;;34.75;;
70075;SDS011;63241;51.056;3.698;2023-05-10T05:21:49;58.90;;;35.78;;
70075;SDS011;63241;51.056;3.698;2023-05-10T05:24:17;58.35;;;33.45;;
70075;SDS011;63241;51.056;3.698;2023-05-10T05:26:44;52.20;;;33.58;;
70075;SDS011;63241;51.056;3.698;2023-05-10T05:29:12;55.98;;;33.80;;
70075;SDS011;63241;51.056;3.698;2023-05-10T05:31:39;54.67;;;33.33;;
70075;SDS011;63241;51.056;3.698;2023-05-10T05:34:07;59.80;;;35.03;;
70075;SDS011;63241;51.056;3.698;2023-05-10T05:36:38;51.35;;;33.33;;
70075;SDS011;63241;51.056;3.698;2023-05-10T05:39:05;49.80;;;32.90;;
70075;SDS011;63241;51.056;3.698;2023-05-10T05:41:33;47.30;;;31.73;;
70075;SDS011;63241;51.056;3.698;2023-05-10T05:44:01;46.70;;;32.50;;
70075;SDS011;63241;51.056;3.698;2023-05-10T05:46:28;42.40;;;30.15;;
70075;SDS011;63241;51.056;3.698;2023-05-10T05:48:56;47.30;;;31.65;;
70075;SDS011;63241;51.056;3.698;2023-05-10T05:51:24;43.55;;;29.70;;
70075;SDS011;63241;51.056;3.698;2023-05-10T05:53:51;45.52;;;29.85;;
70075;SDS011;63241;51.056;3.698;2023-05-10T05:56:19;40.08;;;27.73;;
70075;SDS011;63241;51.056;3.698;2023-05-10T05:58:48;39.20;;;28.17;;
70075;SDS011;63241;51.056;3.698;2023-05-10T06:46:53;57.40;;;36.83;;
70075;SDS011;63241;51.056;3.698;2023-05-10T06:49:24;56.95;;;36.17;;
70075;SDS011;63241;51.056;3.698;2023-05-10T06:51:52;53.55;;;36.88;;
70075;SDS011;63241;51.056;3.698;2023-05-10T06:54:21;48.90;;;33.40;;
70075;SDS011;63241;51.056;3.698;2023-05-10T06:56:49;47.80;;;30.40;;
70075;SDS011;63241;51.056;3.698;2023-05-10T06:59:16;42.62;;;29.25;;
70075;SDS011;63241;51.056;3.698;2023-05-10T07:01:45;40.30;;;31.00;;
70075;SDS011;63241;51.056;3.698;2023-05-10T07:04:12;43.73;;;32.33;;
70075;SDS011;63241;51.056;3.698;2023-05-10T07:06:40;45.03;;;31.93;;
70075;SDS011;63241;51.056;3.698;2023-05-10T07:09:08;39.03;;;31.33;;
70075;SDS011;63241;51.056;3.698;2023-05-10T07:11:35;44.77;;;33.08;;
70075;SDS011;63241;51.056;3.698;2023-05-10T07:14:03;38.35;;;29.92;;
70075;SDS011;63241;51.056;3.698;2023-05-10T07:16:31;44.70;;;30.92;;
70075;SDS011;63241;51.056;3.698;2023-05-10T07:18:58;41.02;;;29.00;;
70075;SDS011;63241;51.056;3.698;2023-05-10T07:21:26;40.55;;;30.15;;
70075;SDS011;63241;51.056;3.698;2023-05-10T07:23:55;41.42;;;30.37;;
70075;SDS011;63241;51.056;3.698;2023-05-10T07:26:23;41.88;;;28.10;;
70075;SDS011;63241;51.056;3.698;2023-05-10T07:28:51;44.20;;;30.10;;
70075;SDS011;63241;51.056;3.698;2023-05-10T07:31:18;41.53;;;29.67;;
70075;SDS011;63241;51.056;3.698;2023-05-10T07:33:46;40.92;;;28.35;;
70075;SDS011;63241;51.056;3.698;2023-05-10T07:36:13;41.48;;;28.65;;
70075;SDS011;63241;51.056;3.698;2023-05-10T07:38:41;39.23;;;27.87;;
70075;SDS011;63241;51.056;3.698;2023-05-10T07:41:09;37.30;;;26.37;;
70075;SDS011;63241;51.056;3.698;2023-05-10T07:43:38;36.35;;;26.55;;
70075;SDS011;63241;51.056;3.698;2023-05-10T07:46:05;35.83;;;26.05;;
70075;SDS011;63241;51.056;3.698;2023-05-10T07:48:35;35.95;;;25.32;;
70075;SDS011;63241;51.056;3.698;2023-05-10T07:51:03;35.10;;;25.20;;
70075;SDS011;63241;51.056;3.698;2023-05-10T07:53:32;32.67;;;25.50;;
70075;SDS011;63241;51.056;3.698;2023-05-10T07:56:19;35.23;;;26.00;;
70075;SDS011;63241;51.056;3.698;2023-05-10T07:58:31;35.48;;;25.40;;
70075;SDS011;63241;51.056;3.698;2023-05-10T08:00:59;37.85;;;26.20;;
70075;SDS011;63241;51.056;3.698;2023-05-10T08:03:26;36.90;;;24.37;;
70075;SDS011;63241;51.056;3.698;2023-05-10T08:05:54;36.55;;;25.23;;
70075;SDS011;63241;51.056;3.698;2023-05-10T08:08:21;33.92;;;23.77;;
70075;SDS011;63241;51.056;3.698;2023-05-10T08:10:49;35.33;;;24.77;;
70075;SDS011;63241;51.056;3.698;2023-05-10T08:13:17;29.98;;;23.22;;
70075;SDS011;63241;51.056;3.698;2023-05-10T08:15:45;31.65;;;23.25;;
70075;SDS011;63241;51.056;3.698;2023-05-10T08:18:13;30.77;;;23.30;;
70075;SDS011;63241;51.056;3.698;2023-05-10T08:20:40;31.17;;;22.20;;
70075;SDS011;63241;51.056;3.698;2023-05-10T08:23:08;31.90;;;23.32;;
70075;SDS011;63241;51.056;3.698;2023-05-10T08:25:36;30.20;;;22.95;;
70075;SDS011;63241;51.056;3.698;2023-05-10T08:28:03;28.77;;;22.62;;
70075;SDS011;63241;51.056;3.698;2023-05-10T08:30:31;37.23;;;23.77;;
70075;SDS011;63241;51.056;3.698;2023-05-10T08:32:59;31.23;;;23.25;;
70075;SDS011;63241;51.056;3.698;2023-05-10T08:35:26;30.45;;;21.23;;
70075;SDS011;63241;51.056;3.698;2023-05-10T08:37:54;35.52;;;23.10;;
70075;SDS011;63241;51.056;3.698;2023-05-10T08:40:22;37.10;;;23.27;;
70075;SDS011;63241;51.056;3.698;2023-05-10T08:42:58;38.00;;;22.13;;
70075;SDS011;63241;51.056;3.698;2023-05-10T08:45:23;29.72;;;20.75;;
70075;SDS011;63241;51.056;3.698;2023-05-10T08:47:53;31.90;;;22.02;;
70075;SDS011;63241;51.056;3.698;2023-05-10T08:50:21;31.87;;;21.73;;
70075;SDS011;63241;51.056;3.698;2023-05-10T08:52:49;34.80;;;22.40;;
70075;SDS011;63241;51.056;3.698;2023-05-10T08:55:19;31.75;;;22.13;;
70075;SDS011;63241;51.056;3.698;2023-05-10T08:57:49;37.85;;;22.37;;
70075;SDS011;63241;51.056;3.698;2023-05-10T09:00:22;32.25;;;20.27;;
70075;SDS011;63241;51.056;3.698;2023-05-10T09:02:46;33.05;;;22.52;;
70075;SDS011;63241;51.056;3.698;2023-05-10T09:05:16;34.20;;;21.05;;
70075;SDS011;63241;51.056;3.698;2023-05-10T09:07:43;33.67;;;21.10;;
70075;SDS011;63241;51.056;3.698;2023-05-10T09:10:11;36.03;;;21.10;;
70075;SDS011;63241;51.056;3.698;2023-05-10T09:12:41;28.00;;;19.65;;
70075;SDS011;63241;51.056;3.698;2023-05-10T09:15:09;36.95;;;20.88;;
70075;SDS011;63241;51.056;3.698;2023-05-10T09:17:40;36.75;;;20.15;;
70075;SDS011;63241;51.056;3.698;2023-05-10T09:20:08;28.32;;;20.50;;
70075;SDS011;63241;51.056;3.698;2023-05-10T09:22:36;29.42;;;20.02;;
70075;SDS011;63241;51.056;3.698;2023-05-10T11:32:57;26.50;;;21.05;;
70075;SDS011;63241;51.056;3.698;2023-05-10T11:35:27;25.90;;;21.07;;
70075;SDS011;63241;51.056;3.698;2023-05-10T11:37:54;22.67;;;20.12;;
70075;SDS011;63241;51.056;3.698;2023-05-10T11:40:22;25.52;;;21.70;;
70075;SDS011;63241;51.056;3.698;2023-05-10T11:42:55;26.57;;;19.95;;
70075;SDS011;63241;51.056;3.698;2023-05-10T11:45:23;24.63;;;21.70;;
70075;SDS011;63241;51.056;3.698;2023-05-10T11:47:51;25.55;;;20.80;;
70075;SDS011;63241;51.056;3.698;2023-05-10T11:50:19;23.65;;;19.60;;
70075;SDS011;63241;51.056;3.698;2023-05-10T11:52:51;24.23;;;19.87;;
70075;SDS011;63241;51.056;3.698;2023-05-10T11:55:20;21.17;;;18.05;;
70075;SDS011;63241;51.056;3.698;2023-05-10T11:57:51;19.35;;;17.35;;
70075;SDS011;63241;51.056;3.698;2023-05-10T12:00:20;19.73;;;17.60;;
70075;SDS011;63241;51.056;3.698;2023-05-10T12:02:48;18.98;;;17.07;;
70075;SDS011;63241;51.056;3.698;2023-05-10T12:05:16;20.50;;;17.15;;
70075;SDS011;63241;51.056;3.698;2023-05-10T12:07:44;17.60;;;15.72;;
70075;SDS011;63241;51.056;3.698;2023-05-10T12:10:12;20.05;;;16.62;;
70075;SDS011;63241;51.056;3.698;2023-05-10T12:12:46;21.45;;;17.20;;
70075;SDS011;63241;51.056;3.698;2023-05-10T12:51:08;30.52;;;21.25;;
70075;SDS011;63241;51.056;3.698;2023-05-10T12:53:37;34.38;;;20.72;;
70075;SDS011;63241;51.056;3.698;2023-05-10T12:56:06;28.23;;;21.02;;
70075;SDS011;63241;51.056;3.698;2023-05-10T12:58:35;33.05;;;21.93;;
70075;SDS011;63241;51.056;3.698;2023-05-10T13:01:03;27.32;;;22.17;;
70075;SDS011;63241;51.056;3.698;2023-05-10T13:03:32;30.08;;;23.22;;
70075;SDS011;63241;51.056;3.698;2023-05-10T13:05:59;35.58;;;23.90;;
70075;SDS011;63241;51.056;3.698;2023-05-10T13:08:27;31.50;;;21.97;;
70075;SDS011;63241;51.056;3.698;2023-05-10T13:10:56;33.10;;;23.38;;
70075;SDS011;63241;51.056;3.698;2023-05-10T13:13:24;31.12;;;23.00;;
70075;SDS011;63241;51.056;3.698;2023-05-10T13:15:52;36.05;;;25.50;;
70075;SDS011;63241;51.056;3.698;2023-05-10T13:18:20;36.17;;;26.48;;
70075;SDS011;63241;51.056;3.698;2023-05-10T13:20:47;36.60;;;25.70;;
70075;SDS011;63241;51.056;3.698;2023-05-10T13:23:15;32.95;;;24.05;;
70075;SDS011;63241;51.056;3.698;2023-05-10T13:25:43;36.60;;;24.90;;
70075;SDS011;63241;51.056;3.698;2023-05-10T13:28:11;39.40;;;24.32;;
70075;SDS011;63241;51.056;3.698;2023-05-10T13:30:38;35.63;;;24.43;;
70075;SDS011;63241;51.056;3.698;2023-05-10T13:33:06;33.92;;;25.10;;
70075;SDS011;63241;51.056;3.698;2023-05-10T13:35:34;36.70;;;25.05;;
70075;SDS011;63241;51.056;3.698;2023-05-10T13:38:01;47.23;;;28.40;;
70075;SDS011;63241;51.056;3.698;2023-05-10T13:40:29;39.88;;;26.02;;
70075;SDS011;63241;51.056;3.698;2023-05-10T13:42:57;41.28;;;24.65;;
70075;SDS011;63241;51.056;3.698;2023-05-10T13:45:24;39.67;;;26.50;;
70075;SDS011;63241;51.056;3.698;2023-05-10T13:47:52;34.55;;;24.15;;
70075;SDS011;63241;51.056;3.698;2023-05-10T13:50:20;40.83;;;26.20;;
70075;SDS011;63241;51.056;3.698;2023-05-10T13:52:47;36.38;;;25.85;;
70075;SDS011;63241;51.056;3.698;2023-05-10T13:55:15;40.50;;;27.77;;
70075;SDS011;63241;51.056;3.698;2023-05-10T13:57:43;35.52;;;25.08;;
70075;SDS011;63241;51.056;3.698;2023-05-10T14:00:11;45.10;;;26.50;;
70075;SDS011;63241;51.056;3.698;2023-05-10T14:02:39;41.53;;;25.27;;
70075;SDS011;63241;51.056;3.698;2023-05-10T14:05:06;42.05;;;27.40;;
70075;SDS011;63241;51.056;3.698;2023-05-10T14:07:34;41.75;;;25.92;;
70075;SDS011;63241;51.056;3.698;2023-05-10T14:10:02;37.63;;;26.17;;
70075;SDS011;63241;51.056;3.698;2023-05-10T14:12:30;42.67;;;26.35;;
70075;SDS011;63241;51.056;3.698;2023-05-10T14:14:58;40.25;;;25.85;;
70075;SDS011;63241;51.056;3.698;2023-05-10T14:17:26;39.95;;;25.60;;
70075;SDS011;63241;51.056;3.698;2023-05-10T14:19:53;41.35;;;25.88;;
70075;SDS011;63241;51.056;3.698;2023-05-10T14:22:21;44.05;;;25.75;;
70075;SDS011;63241;51.056;3.698;2023-05-10T14:24:49;39.67;;;24.85;;
70075;SDS011;63241;51.056;3.698;2023-05-10T14:27:16;44.77;;;25.60;;
70075;SDS011;63241;51.056;3.698;2023-05-10T14:29:44;36.93;;;23.95;;
70075;SDS011;63241;51.056;3.698;2023-05-10T14:32:12;34.48;;;23.62;;
70075;SDS011;63241;51.056;3.698;2023-05-10T14:34:39;35.00;;;24.55;;
70075;SDS011;63241;51.056;3.698;2023-05-10T14:37:09;39.63;;;23.18;;
70075;SDS011;63241;51.056;3.698;2023-05-10T14:39:41;36.95;;;23.62;;
70075;SDS011;63241;51.056;3.698;2023-05-10T14:42:08;34.30;;;22.13;;
70075;SDS011;63241;51.056;3.698;2023-05-10T14:44:36;26.17;;;17.80;;
70075;SDS011;63241;51.056;3.698;2023-05-10T14:47:04;30.52;;;17.15;;
70075;SDS011;63241;51.056;3.698;2023-05-10T14:49:31;23.30;;;14.13;;
70075;SDS011;63241;51.056;3.698;2023-05-10T14:51:59;22.70;;;13.75;;
70075;SDS011;63241;51.056;3.698;2023-05-10T14:54:27;25.27;;;13.08;;
70075;SDS011;63241;51.056;3.698;2023-05-10T14:56:54;22.00;;;13.08;;
70075;SDS011;63241;51.056;3.698;2023-05-10T14:59:22;21.37;;;11.40;;
70075;SDS011;63241;51.056;3.698;2023-05-10T15:01:50;20.37;;;10.35;;
70075;SDS011;63241;51.056;3.698;2023-05-10T15:04:17;26.33;;;10.60;;
70075;SDS011;63241;51.056;3.698;2023-05-10T15:06:45;21.85;;;9.13;;
70075;SDS011;63241;51.056;3.698;2023-05-10T15:09:13;19.35;;;8.25;;
70075;SDS011;63241;51.056;3.698;2023-05-10T15:11:42;17.27;;;7.95;;
70075;SDS011;63241;51.056;3.698;2023-05-10T15:14:10;24.15;;;7.90;;
70075;SDS011;63241;51.056;3.698;2023-05-10T15:16:38;20.45;;;6.80;;
70075;SDS011;63241;51.056;3.698;2023-05-10T15:19:05;18.98;;;6.72;;
70075;SDS011;63241;51.056;3.698;2023-05-10T15:21:33;18.25;;;6.25;;
70075;SDS011;63241;51.056;3.698;2023-05-10T15:24:02;16.40;;;6.53;;
70075;SDS011;63241;51.056;3.698;2023-05-10T15:26:31;17.32;;;6.25;;
70075;SDS011;63241;51.056;3.698;2023-05-10T15:28:58;17.62;;;7.08;;
70075;SDS011;63241;51.056;3.698;2023-05-10T15:31:26;17.87;;;6.58;;
70075;SDS011;63241;51.056;3.698;2023-05-10T15:33:57;19.27;;;6.08;;
70075;SDS011;63241;51.056;3.698;2023-05-10T15:36:25;20.02;;;6.47;;
70075;SDS011;63241;51.056;3.698;2023-05-10T15:38:53;16.10;;;5.55;;
70075;SDS011;63241;51.056;3.698;2023-05-10T15:41:21;20.00;;;7.03;;
70075;SDS011;63241;51.056;3.698;2023-05-10T15:43:50;16.42;;;6.20;;
70075;SDS011;63241;51.056;3.698;2023-05-10T15:46:18;15.50;;;6.05;;
70075;SDS011;63241;51.056;3.698;2023-05-10T15:48:45;16.57;;;5.67;;
70075;SDS011;63241;51.056;3.698;2023-05-10T15:51:13;16.12;;;5.62;;
70075;SDS011;63241;51.056;3.698;2023-05-10T15:53:41;14.20;;;5.12;;
70075;SDS011;63241;51.056;3.698;2023-05-10T15:56:08;12.33;;;4.53;;
70075;SDS011;63241;51.056;3.698;2023-05-10T15:58:39;18.48;;;5.42;;
70075;SDS011;63241;51.056;3.698;2023-05-10T19:14:12;26.97;;;11.93;;
70075;SDS011;63241;51.056;3.698;2023-05-10T19:16:39;32.05;;;12.20;;
70075;SDS011;63241;51.056;3.698;2023-05-10T19:19:07;25.75;;;11.57;;
70075;SDS011;63241;51.056;3.698;2023-05-10T19:21:35;31.68;;;11.33;;
70075;SDS011;63241;51.056;3.698;2023-05-10T19:24:03;31.73;;;11.88;;
70075;SDS011;63241;51.056;3.698;2023-05-10T19:26:31;33.13;;;13.45;;
70075;SDS011;63241;51.056;3.698;2023-05-10T19:28:59;29.40;;;11.57;;
70075;SDS011;63241;51.056;3.698;2023-05-10T19:31:27;24.60;;;11.78;;
70075;SDS011;63241;51.056;3.698;2023-05-10T19:33:55;31.25;;;14.63;;
70075;SDS011;63241;51.056;3.698;2023-05-10T19:36:22;32.15;;;13.15;;
70075;SDS011;63241;51.056;3.698;2023-05-10T19:38:50;33.70;;;15.30;;
70075;SDS011;63241;51.056;3.698;2023-05-10T19:41:18;30.17;;;13.15;;
70075;SDS011;63241;51.056;3.698;2023-05-10T19:43:46;33.35;;;12.68;;
70075;SDS011;63241;51.056;3.698;2023-05-10T19:49:10;30.57;;;11.65;;
70075;SDS011;63241;51.056;3.698;2023-05-10T19:51:38;33.75;;;13.05;;
70075;SDS011;63241;51.056;3.698;2023-05-10T19:54:06;29.77;;;12.98;;
70075;SDS011;63241;51.056;3.698;2023-05-10T19:56:33;33.18;;;13.10;;
70075;SDS011;63241;51.056;3.698;2023-05-10T19:59:01;32.50;;;14.15;;
70075;SDS011;63241;51.056;3.698;2023-05-10T20:01:29;31.37;;;12.75;;
70075;SDS011;63241;51.056;3.698;2023-05-10T20:03:57;29.18;;;12.75;;
70075;SDS011;63241;51.056;3.698;2023-05-10T20:06:25;36.25;;;13.28;;
70075;SDS011;63241;51.056;3.698;2023-05-10T20:08:52;27.77;;;13.70;;
70075;SDS011;63241;51.056;3.698;2023-05-10T20:11:20;34.23;;;13.90;;
70075;SDS011;63241;51.056;3.698;2023-05-10T20:13:48;28.92;;;13.30;;
70075;SDS011;63241;51.056;3.698;2023-05-10T20:16:16;28.45;;;12.40;;
70075;SDS011;63241;51.056;3.698;2023-05-10T20:18:43;34.23;;;13.83;;
70075;SDS011;63241;51.056;3.698;2023-05-10T20:21:11;29.25;;;13.00;;
70075;SDS011;63241;51.056;3.698;2023-05-10T20:23:39;34.55;;;13.15;;
70075;SDS011;63241;51.056;3.698;2023-05-10T20:26:07;36.25;;;14.70;;
70075;SDS011;63241;51.056;3.698;2023-05-10T20:28:35;30.75;;;12.85;;
70075;SDS011;63241;51.056;3.698;2023-05-10T20:31:02;30.68;;;13.85;;
70075;SDS011;63241;51.056;3.698;2023-05-10T20:33:30;30.77;;;13.05;;
70075;SDS011;63241;51.056;3.698;2023-05-10T20:35:58;34.60;;;13.75;;
70075;SDS011;63241;51.056;3.698;2023-05-10T20:38:25;33.60;;;12.80;;
70075;SDS011;63241;51.056;3.698;2023-05-10T20:40:53;26.87;;;12.33;;
70075;SDS011;63241;51.056;3.698;2023-05-10T20:43:20;27.20;;;12.20;;
70075;SDS011;63241;51.056;3.698;2023-05-10T20:45:48;31.02;;;12.78;;
70075;SDS011;63241;51.056;3.698;2023-05-10T20:48:16;28.57;;;11.55;;
70075;SDS011;63241;51.056;3.698;2023-05-10T20:50:44;28.12;;;13.03;;
70075;SDS011;63241;51.056;3.698;2023-05-10T20:53:12;31.80;;;12.25;;
70075;SDS011;63241;51.056;3.698;2023-05-10T20:55:39;28.87;;;12.88;;
70075;SDS011;63241;51.056;3.698;2023-05-10T20:58:07;41.90;;;14.25;;
70075;SDS011;63241;51.056;3.698;2023-05-10T21:00:34;30.62;;;13.15;;
70075;SDS011;63241;51.056;3.698;2023-05-10T21:03:02;32.13;;;14.68;;
70075;SDS011;63241;51.056;3.698;2023-05-10T21:05:30;29.77;;;14.15;;
70075;SDS011;63241;51.056;3.698;2023-05-10T21:07:58;39.55;;;14.75;;
70075;SDS011;63241;51.056;3.698;2023-05-10T21:10:25;31.42;;;13.40;;
70075;SDS011;63241;51.056;3.698;2023-05-10T21:12:56;29.63;;;13.43;;
70075;SDS011;63241;51.056;3.698;2023-05-10T21:15:24;23.75;;;12.78;;
70075;SDS011;63241;51.056;3.698;2023-05-10T21:17:53;23.92;;;12.98;;
70075;SDS011;63241;51.056;3.698;2023-05-10T21:20:20;28.07;;;13.62;;
70075;SDS011;63241;51.056;3.698;2023-05-10T21:28:22;28.57;;;13.15;;
70075;SDS011;63241;51.056;3.698;2023-05-10T21:30:50;26.55;;;13.15;;
70075;SDS011;63241;51.056;3.698;2023-05-10T21:33:17;29.67;;;13.48;;
70075;SDS011;63241;51.056;3.698;2023-05-10T21:35:45;34.88;;;14.15;;
70075;SDS011;63241;51.056;3.698;2023-05-10T21:38:13;36.68;;;15.83;;
70075;SDS011;63241;51.056;3.698;2023-05-10T21:40:41;32.60;;;15.48;;
70075;SDS011;63241;51.056;3.698;2023-05-10T21:43:08;33.35;;;16.07;;
70075;SDS011;63241;51.056;3.698;2023-05-10T21:45:36;43.45;;;16.52;;
70075;SDS011;63241;51.056;3.698;2023-05-10T21:48:04;26.57;;;12.80;;